Time;durP1;ratioP1;P1;durP2;ratioP2;P2;SDS_P1;SDS_P2;PMS_P1;PMS_P2;Temp;Humidity;BMP_temperature;BMP_pressure;BME280_temperature;BME280_humidity;BME280_pressure;Samples;Min_cycle;Max_cycle;Signal;HPM_P1;HPM_P2
2022/03/01 00:01:27;;;;;;;10.18;7.80;;;;;;;7.98;56.03;101980.38;5032456;28;102448;-54
2022/03/01 00:03:55;;;;;;;9.63;7.43;;;;;;;7.98;56.43;101977.66;5033434;28;102798;-54
2022/03/01 00:06:21;;;;;;;9.95;7.82;;;;;;;7.98;56.25;101974.97;5031106;27;103686;-54
2022/03/01 00:08:47;;;;;;;10.48;7.35;;;;;;;7.98;56.31;101972.25;5030776;28;101966;-53
2022/03/01 00:11:13;;;;;;;10.15;8.38;;;;;;;7.98;56.83;101974.97;5030759;28;101868;-54
2022/03/01 00:13:40;;;;;;;11.23;8.50;;;;;;;7.99;55.71;101976.59;5032167;28;102709;-54
2022/03/01 00:16:06;;;;;;;9.52;7.93;;;;;;;7.98;56.31;101969.53;5030990;28;103829;-53
2022/03/01 00:18:33;;;;;;;9.80;7.38;;;;;;;7.98;55.93;101964.94;5030813;28;101917;-53
2022/03/01 00:21:01;;;;;;;9.25;7.15;;;;;;;8.00;56.16;101956.56;5031516;28;102278;-54
2022/03/01 00:23:27;;;;;;;10.60;8.32;;;;;;;7.99;56.77;101949.50;5032097;28;102195;-53
2022/03/01 00:25:53;;;;;;;9.85;7.90;;;;;;;7.99;56.79;101944.06;5030137;28;104011;-54
2022/03/01 00:28:19;;;;;;;10.68;8.40;;;;;;;7.99;56.69;101944.06;5031690;28;101923;-53
2022/03/01 00:30:46;;;;;;;10.55;7.80;;;;;;;7.99;57.07;101944.06;5031685;28;102079;-54
2022/03/01 00:33:12;;;;;;;8.57;7.60;;;;;;;7.99;56.83;101939.47;5032097;28;102216;-54
2022/03/01 00:35:38;;;;;;;12.20;8.18;;;;;;;7.98;56.64;101943.25;5030581;28;103909;-54
2022/03/01 00:38:06;;;;;;;9.25;7.47;;;;;;;7.99;57.14;101941.38;5031986;28;101947;-54
2022/03/01 00:40:32;;;;;;;9.23;7.57;;;;;;;7.99;57.21;101938.66;5031334;28;102285;-54
2022/03/01 00:42:58;;;;;;;9.77;7.50;;;;;;;7.99;56.67;101938.66;5032433;27;102439;-53
2022/03/01 00:45:25;;;;;;;9.65;7.15;;;;;;;7.99;57.07;101928.63;5030358;27;103516;-53
2022/03/01 00:47:51;;;;;;;9.15;7.80;;;;;;;7.99;57.20;101927.81;5031633;27;102356;-53
2022/03/01 00:50:18;;;;;;;9.23;7.05;;;;;;;7.98;56.23;101931.59;5031236;28;102356;-53
2022/03/01 00:52:44;;;;;;;8.10;7.25;;;;;;;7.99;56.32;101923.22;5032436;27;102311;-53
2022/03/01 00:55:11;;;;;;;9.65;7.28;;;;;;;7.98;57.18;101918.84;5033216;28;103863;-53
2022/03/01 00:57:38;;;;;;;8.55;7.18;;;;;;;7.98;57.31;101918.84;5034904;28;101947;-53
2022/03/01 01:00:06;;;;;;;10.20;8.02;;;;;;;7.98;56.79;101907.19;5034499;28;102285;-53
2022/03/01 01:02:32;;;;;;;10.07;7.40;;;;;;;7.99;57.26;101908.84;5017358;28;102450;-53
2022/03/01 01:04:59;;;;;;;10.38;7.28;;;;;;;7.99;56.49;101911.53;5034373;28;103926;-53
2022/03/01 01:07:25;;;;;;;10.68;7.63;;;;;;;7.99;56.96;101898.81;5034621;28;102338;-53
2022/03/01 01:09:51;;;;;;;11.40;8.20;;;;;;;7.99;56.99;101895.28;5033989;27;102598;-53
2022/03/01 01:12:19;;;;;;;11.02;7.93;;;;;;;7.99;56.54;101895.28;5035580;28;102160;-53
2022/03/01 01:14:46;;;;;;;11.05;8.05;;;;;;;7.99;56.43;101890.69;5033212;27;103892;-53
2022/03/01 01:17:12;;;;;;;10.90;8.50;;;;;;;8.00;56.44;101886.91;5034521;28;102471;-53
2022/03/01 01:19:56;;;;;;;11.60;8.13;;;;;;;8.00;56.86;101888.78;5032485;27;102376;-53
2022/03/01 01:22:41;;;;;;;11.00;7.05;;;;;;;7.99;57.47;101889.84;5035194;28;102308;-53
2022/03/01 01:25:10;;;;;;;10.98;8.15;;;;;;;7.99;57.13;101885.25;5033808;28;103919;-53
2022/03/01 01:27:43;;;;;;;10.65;8.00;;;;;;;7.98;57.34;101882.78;5034160;28;101924;-53
2022/03/01 01:30:12;;;;;;;11.35;7.93;;;;;;;7.97;57.48;101884.66;5033918;28;102041;-53
2022/03/01 01:32:39;;;;;;;13.55;9.43;;;;;;;7.99;56.85;101884.44;5034625;27;102168;-53
2022/03/01 01:35:07;;;;;;;12.30;8.57;;;;;;;7.98;57.40;101888.22;5033329;27;103941;-53
2022/03/01 01:37:33;;;;;;;11.40;8.60;;;;;;;7.98;57.26;101872.75;5034220;27;101892;-53
2022/03/01 01:40:00;;;;;;;12.48;8.70;;;;;;;7.98;57.04;101880.91;5033890;28;101925;-53
2022/03/01 01:42:26;;;;;;;13.45;9.07;;;;;;;7.99;57.20;101874.41;5034979;28;102109;-53
2022/03/01 01:44:54;;;;;;;13.43;9.05;;;;;;;7.98;57.11;101866.53;5032305;27;103592;-53
2022/03/01 01:47:20;;;;;;;10.98;8.45;;;;;;;7.97;57.42;101871.13;5033731;28;101767;-53
2022/03/01 01:49:46;;;;;;;11.90;8.43;;;;;;;7.99;57.18;101865.47;5033327;28;102466;-54
2022/03/01 01:52:13;;;;;;;11.43;8.55;;;;;;;7.98;56.86;101861.94;5034471;28;102711;-53
2022/03/01 01:54:40;;;;;;;13.38;9.13;;;;;;;7.99;57.25;101868.16;5032774;28;103709;-53
2022/03/01 01:57:14;;;;;;;12.63;9.07;;;;;;;7.98;57.77;101856.50;5034207;28;101814;-53
2022/03/01 01:59:41;;;;;;;12.70;9.02;;;;;;;7.99;57.50;101850.00;5033280;28;102469;-53
2022/03/01 02:02:12;;;;;;;12.57;8.50;;;;;;;7.99;57.10;101846.47;5034779;27;102304;-53
2022/03/01 02:04:38;;;;;;;12.75;8.93;;;;;;;7.99;57.33;101838.34;5031600;27;104040;-53
2022/03/01 02:07:05;;;;;;;12.20;8.60;;;;;;;7.98;57.80;101837.53;5033694;27;102377;-53
2022/03/01 02:09:33;;;;;;;14.27;9.02;;;;;;;7.98;57.49;101823.16;5032741;27;101993;-53
2022/03/01 02:11:59;;;;;;;12.30;9.35;;;;;;;7.99;57.42;101816.66;5033700;28;102255;-53
2022/03/01 02:14:25;;;;;;;11.77;8.65;;;;;;;7.99;57.77;101816.66;5032443;28;104030;-53
2022/03/01 02:16:52;;;;;;;11.60;9.10;;;;;;;7.99;57.52;101820.19;5032761;28;101916;-53
2022/03/01 02:19:20;;;;;;;9.85;8.48;;;;;;;8.00;57.43;101821.03;5032820;28;101881;-53
2022/03/01 02:21:49;;;;;;;13.10;8.77;;;;;;;7.99;58.29;101824.78;5033368;28;102185;-53
2022/03/01 02:24:16;;;;;;;12.63;9.15;;;;;;;7.99;57.52;101830.22;5032055;28;103884;-53
2022/03/01 02:26:42;;;;;;;10.65;8.63;;;;;;;7.99;58.12;101816.66;5032530;28;102525;-53
2022/03/01 02:29:09;;;;;;;10.75;8.73;;;;;;;7.99;58.28;101831.03;5032643;28;102476;-53
2022/03/01 02:31:35;;;;;;;10.57;8.35;;;;;;;8.00;57.76;101831.88;5033364;28;102302;-53
2022/03/01 02:34:02;;;;;;;9.35;8.07;;;;;;;8.00;58.71;101829.97;5032094;27;104061;-53
2022/03/01 02:36:29;;;;;;;9.63;8.15;;;;;;;8.00;57.67;101831.88;5033108;28;102300;-53
2022/03/01 02:38:57;;;;;;;11.95;7.90;;;;;;;8.00;57.98;101821.03;5032765;28;101894;-53
2022/03/01 02:41:25;;;;;;;9.90;8.10;;;;;;;8.00;58.12;101829.97;5033918;28;102291;-56
2022/03/01 02:43:52;;;;;;;10.23;8.32;;;;;;;8.00;58.21;101845.41;5025652;28;103679;-53
2022/03/01 02:46:18;;;;;;;11.48;8.30;;;;;;;8.01;57.71;101836.25;5013220;28;102433;-53
2022/03/01 02:48:44;;;;;;;8.98;8.07;;;;;;;8.00;58.60;101842.72;5012392;28;102120;-53
2022/03/01 02:51:10;;;;;;;11.27;7.63;;;;;;;7.99;57.87;101857.31;5013628;28;102202;-53
2022/03/01 02:53:37;;;;;;;9.95;8.10;;;;;;;7.99;58.37;101858.16;5027976;28;104102;-53
2022/03/01 02:56:05;;;;;;;8.90;7.57;;;;;;;7.99;57.91;101862.75;5034222;28;102605;-53
2022/03/01 02:58:31;;;;;;;10.52;7.82;;;;;;;7.99;58.74;101868.16;5034716;28;101769;-53
2022/03/01 03:00:58;;;;;;;9.13;8.15;;;;;;;7.98;57.85;101859.22;5035835;28;102302;-53
2022/03/01 03:03:24;;;;;;;9.05;7.43;;;;;;;7.99;57.63;101873.59;5034087;28;103678;-53
2022/03/01 03:05:51;;;;;;;10.88;6.95;;;;;;;7.98;58.28;101864.63;5033419;28;102107;-53
2022/03/01 03:08:17;;;;;;;9.10;7.03;;;;;;;7.99;58.23;101860.03;5033007;27;102406;-53
2022/03/01 03:10:43;;;;;;;8.52;7.63;;;;;;;7.98;57.74;101867.34;5033606;28;101911;-53
2022/03/01 03:13:11;;;;;;;8.05;7.22;;;;;;;7.97;57.34;101864.84;5032386;28;103923;-53
2022/03/01 03:15:37;;;;;;;8.32;7.28;;;;;;;7.97;58.67;101872.97;5033105;27;102422;-53
2022/03/01 03:18:04;;;;;;;8.35;7.13;;;;;;;7.95;57.74;101874.03;5014062;27;102404;-53
2022/03/01 03:20:30;;;;;;;9.65;7.30;;;;;;;7.95;57.55;101868.63;5013664;28;102236;-53
2022/03/01 03:22:56;;;;;;;8.07;6.93;;;;;;;7.94;57.04;101869.69;5011264;28;103930;-53
2022/03/01 03:25:23;;;;;;;7.88;7.00;;;;;;;7.94;57.81;101869.69;5012292;28;102631;-53
2022/03/01 03:27:49;;;;;;;8.00;7.13;;;;;;;7.94;57.40;101866.97;5011968;28;102260;-53
2022/03/01 03:30:17;;;;;;;8.95;6.63;;;;;;;7.94;57.58;101871.56;5029921;28;102314;-53
2022/03/01 03:32:50;;;;;;;8.60;7.15;;;;;;;7.92;57.52;101871.78;5031946;28;103787;-53
2022/03/01 03:35:17;;;;;;;11.23;7.85;;;;;;;7.92;57.40;101873.66;5032627;27;102230;-53
2022/03/01 03:37:43;;;;;;;8.38;6.90;;;;;;;7.92;57.44;101874.47;5032056;28;102008;-53
2022/03/01 03:40:10;;;;;;;8.43;7.05;;;;;;;7.91;57.79;101856.56;5032887;28;102037;-53
2022/03/01 03:42:37;;;;;;;7.63;6.78;;;;;;;7.91;57.78;101867.41;5011929;28;103207;-58
2022/03/01 03:45:05;;;;;;;8.90;7.28;;;;;;;7.91;57.47;101872.00;5012432;28;102692;-53
2022/03/01 03:47:33;;;;;;;8.88;7.70;;;;;;;7.89;57.22;101869.50;5012385;28;102034;-53
2022/03/01 03:50:00;;;;;;;8.27;6.78;;;;;;;7.89;57.33;101866.78;5013312;28;102781;-53
2022/03/01 03:52:26;;;;;;;8.65;7.15;;;;;;;7.90;57.67;101870.38;5011979;28;103927;-53
2022/03/01 03:54:54;;;;;;;9.32;7.85;;;;;;;7.90;57.71;101879.31;5012639;28;101916;-53
2022/03/01 03:57:20;;;;;;;7.63;6.82;;;;;;;7.90;57.57;101878.50;5011993;28;102436;-53
2022/03/01 03:59:46;;;;;;;9.38;7.75;;;;;;;7.90;57.21;101887.44;5012999;28;102263;-53
2022/03/01 04:02:12;;;;;;;7.82;7.07;;;;;;;7.90;56.94;101875.78;5011193;28;103904;-53
2022/03/01 04:04:40;;;;;;;9.88;7.78;;;;;;;7.90;57.59;101879.31;5012027;28;102286;-53
2022/03/01 04:07:06;;;;;;;9.35;7.50;;;;;;;7.90;57.27;101883.91;5011257;28;101859;-53
2022/03/01 04:09:35;;;;;;;8.60;7.43;;;;;;;7.90;57.50;101879.31;5022500;28;102168;-53
2022/03/01 04:12:03;;;;;;;9.20;7.63;;;;;;;7.91;57.24;101877.44;5031141;28;103757;-53
2022/03/01 04:14:30;;;;;;;9.02;7.82;;;;;;;7.91;57.23;101872.84;5031803;27;102321;-53
2022/03/01 04:16:57;;;;;;;8.63;7.60;;;;;;;7.92;57.50;101876.38;5031289;28;102695;-53
2022/03/01 04:19:23;;;;;;;9.02;7.40;;;;;;;7.92;57.33;101869.06;5032838;28;102213;-53
2022/03/01 04:21:50;;;;;;;8.55;7.40;;;;;;;7.92;57.28;101862.81;5030682;28;103866;-53
2022/03/01 04:24:17;;;;;;;8.57;7.68;;;;;;;7.92;57.00;101850.09;5031448;28;101909;-53
2022/03/01 04:26:43;;;;;;;8.70;7.43;;;;;;;7.92;56.76;101852.81;5030213;27;102274;-53
2022/03/01 04:29:10;;;;;;;10.45;7.93;;;;;;;7.92;57.76;101852.81;5035560;28;102397;-53
2022/03/01 04:31:37;;;;;;;8.45;6.97;;;;;;;7.93;56.85;101845.50;5033953;28;103471;-53
2022/03/01 04:34:03;;;;;;;9.32;7.57;;;;;;;7.92;57.18;101836.53;5034406;28;102592;-53
2022/03/01 04:36:30;;;;;;;8.50;7.40;;;;;;;7.92;58.08;101836.53;5034844;28;102579;-53
2022/03/01 04:38:57;;;;;;;9.82;7.38;;;;;;;7.92;56.96;101831.13;5036048;28;102203;-53
2022/03/01 04:41:24;;;;;;;8.60;7.63;;;;;;;7.93;57.18;101823.81;5016491;28;104047;-53
2022/03/01 04:43:51;;;;;;;7.93;7.07;;;;;;;7.93;57.07;101830.09;5014375;28;101876;-53
2022/03/01 04:46:18;;;;;;;8.07;7.28;;;;;;;7.93;58.17;101826.53;5014466;28;102102;-53
2022/03/01 04:48:44;;;;;;;9.32;7.95;;;;;;;7.93;57.19;101821.09;5015637;28;102123;-53
2022/03/01 04:51:10;;;;;;;8.45;7.07;;;;;;;7.93;57.05;101824.66;5014190;28;104230;-53
2022/03/01 04:53:37;;;;;;;8.95;7.55;;;;;;;7.92;58.36;101817.56;5027817;28;101936;-53
2022/03/01 04:56:05;;;;;;;10.07;8.05;;;;;;;7.93;57.40;101812.97;5034710;28;101827;-53
2022/03/01 04:58:31;;;;;;;9.23;7.43;;;;;;;7.93;57.16;101827.38;5035675;28;102138;-53
2022/03/01 05:00:58;;;;;;;8.00;6.80;;;;;;;7.93;58.75;101827.38;5034016;27;103694;-53
2022/03/01 05:03:24;;;;;;;8.27;7.13;;;;;;;7.92;58.14;101828.41;5035289;27;102038;-53
2022/03/01 05:05:50;;;;;;;7.82;7.03;;;;;;;7.91;57.68;101818.63;5034031;28;102410;-53
2022/03/01 05:08:17;;;;;;;10.30;8.27;;;;;;;7.92;57.63;101820.28;5035860;27;102406;-53
2022/03/01 05:10:43;;;;;;;8.57;7.60;;;;;;;7.93;57.74;101819.25;5034072;28;104259;-53
2022/03/01 05:13:11;;;;;;;8.60;7.18;;;;;;;7.94;57.94;101830.91;5034929;28;102406;-53
2022/03/01 05:15:37;;;;;;;9.05;8.07;;;;;;;7.94;57.30;101837.16;5033414;28;102321;-53
2022/03/01 05:18:03;;;;;;;8.77;6.97;;;;;;;7.93;57.30;101829.22;5035389;28;102179;-53
2022/03/01 05:20:30;;;;;;;8.25;7.35;;;;;;;7.93;57.06;101832.78;5033421;28;103876;-53
2022/03/01 05:22:56;;;;;;;8.85;7.57;;;;;;;7.94;58.24;101839.03;5034632;28;101895;-53
2022/03/01 05:25:23;;;;;;;9.43;7.30;;;;;;;7.94;58.00;101839.88;5034097;28;101869;-53
2022/03/01 05:27:52;;;;;;;11.00;7.60;;;;;;;7.93;58.05;101835.50;5035042;28;102132;-53
2022/03/01 05:30:21;;;;;;;9.02;7.35;;;;;;;7.93;58.74;101838.22;5033712;28;104123;-53
2022/03/01 05:32:48;;;;;;;;;;;;;;;7.94;57.98;101839.88;5034641;27;101833;-53
2022/03/01 05:35:15;;;;;;;10.93;7.65;;;;;;;7.94;58.01;101839.03;5033845;27;102087;-53
2022/03/01 05:37:43;;;;;;;11.05;7.82;;;;;;;7.92;57.73;101847.38;5034482;27;102725;-53
2022/03/01 05:40:10;;;;;;;7.95;7.15;;;;;;;7.94;58.20;101839.03;5033520;27;103960;-54
2022/03/01 05:42:37;;;;;;;10.05;7.80;;;;;;;7.92;57.81;101836.53;5033807;28;102245;-53
2022/03/01 05:45:05;;;;;;;8.10;7.15;;;;;;;7.92;58.12;101847.38;5032884;27;101778;-53
2022/03/01 05:47:33;;;;;;;8.85;7.53;;;;;;;7.93;58.44;101840.06;5034835;27;102512;-53
2022/03/01 05:50:00;;;;;;;8.95;7.45;;;;;;;7.93;58.36;101837.34;5033174;28;103503;-53
2022/03/01 05:52:26;;;;;;;9.43;7.30;;;;;;;7.93;58.41;101831.94;5033917;27;102201;-53
2022/03/01 05:54:53;;;;;;;9.10;7.57;;;;;;;7.92;57.86;101839.25;5020678;27;102134;-53
2022/03/01 05:57:19;;;;;;;10.15;8.02;;;;;;;7.93;57.41;101838.22;5014283;28;102696;-53
2022/03/01 05:59:46;;;;;;;8.85;7.20;;;;;;;7.93;57.99;101831.94;5012879;28;103877;-53
2022/03/01 06:02:12;;;;;;;10.63;7.63;;;;;;;7.92;57.60;101831.13;5013156;28;102455;-53
2022/03/01 06:04:40;;;;;;;8.82;7.68;;;;;;;7.91;57.69;101834.88;5012650;28;101904;-53
2022/03/01 06:07:06;;;;;;;8.30;7.35;;;;;;;7.93;57.99;101835.50;5014502;28;102715;-53
2022/03/01 06:09:32;;;;;;;8.55;6.97;;;;;;;7.93;58.38;101831.94;5017994;28;103839;-53
2022/03/01 06:11:59;;;;;;;10.18;8.27;;;;;;;7.93;57.87;101823.81;5033335;28;101929;-53
2022/03/01 06:14:25;;;;;;;8.55;7.65;;;;;;;7.94;57.92;101828.19;5032535;28;102233;-53
2022/03/01 06:16:51;;;;;;;8.40;7.15;;;;;;;7.94;58.14;101830.91;5033631;28;102379;-53
2022/03/01 06:19:18;;;;;;;9.63;8.00;;;;;;;7.93;58.25;101830.09;5032836;28;104239;-53
2022/03/01 06:21:46;;;;;;;9.40;7.32;;;;;;;7.93;58.47;101832.78;5033185;27;101980;-52
2022/03/01 06:24:12;;;;;;;8.43;7.40;;;;;;;7.93;58.63;101832.78;5032950;28;102228;-53
2022/03/01 06:26:39;;;;;;;8.50;7.60;;;;;;;7.92;57.96;101836.53;5033477;28;102169;-53
2022/03/01 06:29:05;;;;;;;9.10;8.10;;;;;;;7.93;58.75;101838.22;5031824;28;103874;-53
2022/03/01 06:31:32;;;;;;;10.98;7.60;;;;;;;7.92;58.48;101831.13;5023896;28;101934;-53
2022/03/01 06:33:58;;;;;;;10.18;7.80;;;;;;;7.92;58.16;101847.38;5032908;28;102448;-53
2022/03/01 06:36:25;;;;;;;10.80;7.60;;;;;;;7.92;58.57;101836.53;5034241;28;102174;-53
2022/03/01 06:38:53;;;;;;;9.40;7.47;;;;;;;7.93;58.59;101843.63;5032575;28;102907;-53
2022/03/01 06:41:20;;;;;;;11.05;8.60;;;;;;;7.92;58.28;101841.13;5018940;28;101970;-53
2022/03/01 06:43:46;;;;;;;10.20;8.48;;;;;;;7.90;59.08;101849.50;5013040;28;101844;-53
2022/03/01 06:46:13;;;;;;;8.82;7.63;;;;;;;7.90;58.67;101848.69;5015964;28;102261;-53
2022/03/01 06:48:40;;;;;;;9.82;8.23;;;;;;;7.90;58.95;101844.09;5014234;28;104093;-53
2022/03/01 06:51:07;;;;;;;10.00;8.38;;;;;;;7.90;58.76;101844.09;5014971;28;102065;-53
2022/03/01 06:53:34;;;;;;;10.23;8.60;;;;;;;7.90;57.45;101844.09;5021279;28;102560;-53
2022/03/01 06:56:02;;;;;;;10.60;8.85;;;;;;;7.91;58.35;101848.44;5034403;28;102102;-53
2022/03/01 06:58:29;;;;;;;10.77;8.73;;;;;;;7.90;57.67;101849.50;5032972;28;103925;-53
2022/03/01 07:00:56;;;;;;;11.25;8.32;;;;;;;7.90;57.83;101844.09;5033922;27;101910;-53
2022/03/01 07:03:22;;;;;;;11.13;8.48;;;;;;;7.91;57.71;101853.88;5033491;27;101952;-53
2022/03/01 07:05:49;;;;;;;9.43;8.15;;;;;;;7.91;57.72;101845.72;5034429;27;102593;-53
2022/03/01 07:08:15;;;;;;;11.43;8.45;;;;;;;7.92;57.74;101852.81;5032567;28;103916;-53
2022/03/01 07:10:41;;;;;;;9.23;8.15;;;;;;;7.93;58.18;101850.91;5032868;27;101798;-53
2022/03/01 07:13:09;;;;;;;10.52;8.23;;;;;;;7.92;58.17;101841.97;5032488;28;102507;-53
2022/03/01 07:15:37;;;;;;;9.40;8.32;;;;;;;7.92;58.56;101844.66;5017595;27;102167;-53
2022/03/01 07:18:04;;;;;;;7.07;5.73;;;;;;;7.94;57.24;101849.88;5012032;28;104087;-53
2022/03/01 07:20:30;;;;;;;9.98;8.02;;;;;;;7.94;58.31;101847.16;5013056;28;101890;-53
2022/03/01 07:22:59;;;;;;;10.60;7.68;;;;;;;7.94;58.07;101845.28;5012511;28;102023;-53
2022/03/01 07:25:25;;;;;;;9.90;8.13;;;;;;;7.94;57.55;101842.56;5013632;28;102207;-54
2022/03/01 07:27:53;;;;;;;11.43;8.27;;;;;;;7.95;58.13;101846.94;5012294;28;103923;-53
2022/03/01 07:30:24;;;;;;;10.40;8.00;;;;;;;7.95;58.15;101846.94;5017472;28;102847;-53
2022/03/01 07:32:52;;;;;;;10.50;8.32;;;;;;;7.97;57.35;101843.16;5033286;27;102465;-53
2022/03/01 07:35:19;;;;;;;10.87;8.83;;;;;;;7.95;57.96;101846.94;5034338;27;102117;-53
2022/03/01 07:37:46;;;;;;;9.85;8.45;;;;;;;7.98;57.93;101844.84;5031380;28;103636;-53
2022/03/01 07:40:14;;;;;;;10.25;8.23;;;;;;;7.99;57.78;101841.06;5033376;28;102311;-53
2022/03/01 07:42:41;;;;;;;11.20;8.70;;;;;;;7.99;58.42;101846.47;5031993;27;102379;-53
2022/03/01 07:45:09;;;;;;;11.57;9.00;;;;;;;7.99;57.66;101835.63;5032086;28;102198;-53
2022/03/01 07:47:37;;;;;;;10.93;8.57;;;;;;;7.99;58.13;101841.06;5031469;27;103029;-53
2022/03/01 07:50:04;;;;;;;11.93;9.18;;;;;;;7.99;57.67;101839.16;5033027;28;102387;-53
2022/03/01 07:52:30;;;;;;;11.60;8.68;;;;;;;8.00;58.00;101832.69;5031384;28;102310;-53
2022/03/01 07:54:57;;;;;;;11.32;8.82;;;;;;;8.00;57.96;101834.56;5032866;28;102784;-53
2022/03/01 07:57:23;;;;;;;12.70;9.40;;;;;;;8.01;58.10;101828.13;5031482;28;103723;-53
2022/03/01 07:59:50;;;;;;;11.68;8.68;;;;;;;8.01;58.42;101833.53;5032203;28;101930;-53
2022/03/01 08:02:16;;;;;;;13.88;9.20;;;;;;;8.02;58.37;101824.34;5030493;28;102225;-53
2022/03/01 08:04:44;;;;;;;11.88;9.00;;;;;;;8.02;58.37;101827.06;5032630;28;102214;-53
2022/03/01 08:07:11;;;;;;;12.40;9.07;;;;;;;8.02;57.84;101829.78;5031271;28;103859;-53
2022/03/01 08:09:38;;;;;;;12.07;9.45;;;;;;;8.01;58.74;101826.22;5031766;28;102313;-53
2022/03/01 08:12:06;;;;;;;10.63;9.30;;;;;;;8.03;57.63;101831.41;5031189;27;102292;-53
2022/03/01 08:14:35;;;;;;;13.55;10.10;;;;;;;8.03;58.10;101823.28;5030735;28;102527;-53
2022/03/01 08:17:02;;;;;;;14.55;10.30;;;;;;;8.04;57.97;101824.94;5029624;28;103891;-53
2022/03/01 08:19:29;;;;;;;12.13;9.25;;;;;;;8.04;57.72;101822.22;5032122;28;102386;-53
2022/03/01 08:21:56;;;;;;;11.65;9.63;;;;;;;8.04;58.96;101831.22;5031580;28;101909;-53
2022/03/01 08:24:22;;;;;;;13.52;10.30;;;;;;;8.04;58.63;101828.50;5032643;27;102249;-53
2022/03/01 08:26:49;;;;;;;11.90;9.68;;;;;;;8.05;58.59;101826.59;5030784;28;103881;-53
2022/03/01 08:29:16;;;;;;;12.25;9.93;;;;;;;8.06;58.67;101830.97;5032152;28;102285;-53
2022/03/01 08:31:43;;;;;;;13.20;10.23;;;;;;;8.05;58.50;101819.28;5031212;28;101933;-53
2022/03/01 08:34:09;;;;;;;13.60;10.18;;;;;;;8.05;58.29;101818.47;5032680;28;102349;-53
2022/03/01 08:36:35;;;;;;;12.80;10.30;;;;;;;8.07;57.90;101824.47;5030535;27;103879;-53
2022/03/01 08:39:05;;;;;;;14.15;10.10;;;;;;;8.07;58.09;101827.19;5032174;28;102130;-53
2022/03/01 08:41:32;;;;;;;12.32;9.63;;;;;;;8.06;58.44;101825.53;5031301;27;102415;-53
2022/03/01 08:43:58;;;;;;;13.63;9.60;;;;;;;8.06;58.71;101817.41;5032285;28;102101;-53
2022/03/01 08:46:25;;;;;;;13.25;10.02;;;;;;;8.05;58.23;101813.06;5031260;27;103535;-53
2022/03/01 08:48:53;;;;;;;12.48;10.25;;;;;;;8.05;58.64;101819.28;5031289;28;101910;-53
2022/03/01 08:51:21;;;;;;;14.35;11.18;;;;;;;8.05;58.26;101815.75;5031483;27;102224;-53
2022/03/01 08:53:48;;;;;;;13.27;10.73;;;;;;;8.05;58.36;101815.75;5031989;27;102174;-53
2022/03/01 08:56:16;;;;;;;12.98;10.45;;;;;;;8.04;58.31;101816.78;5030569;28;104090;-53
2022/03/01 08:58:43;;;;;;;13.90;10.20;;;;;;;8.04;58.85;101811.38;5031314;28;102137;-53
2022/03/01 09:01:10;;;;;;;13.05;9.70;;;;;;;8.04;58.44;101808.66;5030821;27;102901;-55
2022/03/01 09:03:37;;;;;;;13.15;10.13;;;;;;;8.04;58.80;101795.97;5032024;28;102435;-53
2022/03/01 09:06:05;;;;;;;12.68;10.25;;;;;;;8.05;59.47;101807.63;5029610;28;103755;-53
2022/03/01 09:08:32;;;;;;;12.95;10.15;;;;;;;8.04;58.10;101797.81;5029635;28;102168;-53
2022/03/01 09:10:59;;;;;;;13.85;10.27;;;;;;;8.05;59.27;101802.22;5027557;28;102307;-53
2022/03/01 09:13:27;;;;;;;13.93;10.15;;;;;;;8.05;58.09;101802.22;5012183;28;102116;-53
2022/03/01 09:15:54;;;;;;;15.88;10.57;;;;;;;8.04;58.84;101795.09;5029520;27;103981;-53
2022/03/01 09:18:22;;;;;;;11.88;9.82;;;;;;;8.04;59.17;101806.81;5034763;28;101833;-53
2022/03/01 09:20:49;;;;;;;11.95;9.90;;;;;;;8.04;58.24;101803.25;5034218;28;102296;-53
2022/03/01 09:23:15;;;;;;;16.27;10.90;;;;;;;8.05;58.30;101802.22;5035367;28;102519;-53
2022/03/01 09:25:41;;;;;;;13.40;10.07;;;;;;;8.04;58.55;101795.97;5033577;28;103937;-53
2022/03/01 09:28:08;;;;;;;13.18;10.50;;;;;;;8.04;58.57;101795.09;5034285;28;102009;-53
2022/03/01 09:30:36;;;;;;;12.13;9.82;;;;;;;8.03;59.38;101793.47;5033378;27;102169;-53
2022/03/01 09:33:02;;;;;;;13.65;10.30;;;;;;;8.03;58.26;101793.47;5028349;28;102112;-54
2022/03/01 09:35:28;;;;;;;14.07;9.82;;;;;;;8.03;58.91;101788.88;5013535;28;103860;-53
2022/03/01 09:37:55;;;;;;;13.70;10.70;;;;;;;8.02;58.91;101787.22;5014315;28;102332;-53
2022/03/01 09:40:22;;;;;;;14.43;10.85;;;;;;;8.03;58.87;101777.19;5013976;28;102439;-53
2022/03/01 09:42:51;;;;;;;14.38;10.60;;;;;;;8.04;58.34;101784.25;5014990;28;102458;-53
2022/03/01 09:45:18;;;;;;;12.43;10.02;;;;;;;8.05;57.87;101785.94;5012972;28;104125;-53
2022/03/01 09:47:48;;;;;;;12.63;10.37;;;;;;;8.04;58.84;101785.13;5013630;28;102445;-53
2022/03/01 09:50:15;;;;;;;13.50;10.88;;;;;;;8.03;58.61;101775.31;5013816;28;101828;-53
2022/03/01 09:52:42;;;;;;;13.48;10.63;;;;;;;8.04;58.27;101778.84;5014710;28;102128;-54
2022/03/01 09:55:09;;;;;;;14.43;10.95;;;;;;;8.05;58.68;101777.81;5012934;28;103894;-53
2022/03/01 09:57:35;;;;;;;14.40;10.80;;;;;;;8.05;59.02;101775.91;5013581;28;102457;-53
2022/03/01 10:00:04;;;;;;;13.77;10.10;;;;;;;8.04;58.77;101768.84;5013660;28;102313;-53
2022/03/01 10:02:35;;;;;;;15.20;10.60;;;;;;;8.04;59.05;101768.00;5014348;28;102890;-53
2022/03/01 10:05:04;;;;;;;12.95;10.63;;;;;;;8.04;58.65;101768.00;5012679;28;103002;-53
2022/03/01 10:07:32;;;;;;;13.25;10.32;;;;;;;8.05;58.42;101769.69;5013100;28;102293;-53
2022/03/01 10:10:04;;;;;;;12.07;9.88;;;;;;;8.04;59.44;101763.44;5012784;28;102572;-53
2022/03/01 10:12:31;;;;;;;11.98;9.27;;;;;;;8.05;58.96;101756.13;5027983;28;102188;-53
2022/03/01 10:15:06;;;;;;;11.60;9.57;;;;;;;8.05;59.26;101758.84;5027922;28;103794;-53
2022/03/01 10:17:34;;;;;;;13.40;9.45;;;;;;;8.05;58.44;101750.69;5033526;27;101908;-53
2022/03/01 10:20:09;;;;;;;13.25;9.93;;;;;;;8.04;59.19;101751.72;5033634;28;102504;-53
2022/03/01 10:22:44;;;;;;;12.68;9.60;;;;;;;8.05;58.64;101748.00;5034501;28;102350;-53
2022/03/01 10:25:12;;;;;;;12.23;9.55;;;;;;;8.06;58.50;101750.47;5031879;27;104033;-53
2022/03/01 10:27:39;;;;;;;11.73;9.77;;;;;;;8.06;58.34;101749.63;5033145;28;102540;-53
2022/03/01 10:30:07;;;;;;;11.98;9.30;;;;;;;8.07;58.32;101740.44;5032267;28;102006;-53
2022/03/01 10:32:34;;;;;;;13.87;10.30;;;;;;;8.07;58.98;101745.84;5026532;28;102698;-53
2022/03/01 10:35:03;;;;;;;13.63;9.57;;;;;;;8.07;59.10;101741.25;5035257;27;104113;-53
2022/03/01 10:37:34;;;;;;;11.63;9.13;;;;;;;8.08;58.11;101732.09;5022893;28;102398;-53
2022/03/01 10:40:17;;;;;;;12.07;9.63;;;;;;;8.08;59.43;101720.41;5013425;28;102470;-53
2022/03/01 10:42:43;;;;;;;12.02;9.20;;;;;;;8.08;58.54;101721.25;5014558;28;102351;-53
2022/03/01 10:45:10;;;;;;;12.48;9.27;;;;;;;8.08;58.62;101717.72;5012764;28;103887;-53
2022/03/01 10:47:39;;;;;;;11.20;9.40;;;;;;;8.08;59.02;101710.41;5013737;28;102272;-53
2022/03/01 10:50:08;;;;;;;12.32;9.63;;;;;;;8.09;58.95;101711.22;5013583;28;102223;-53
2022/03/01 10:52:41;;;;;;;11.60;9.25;;;;;;;8.09;59.07;101703.09;5013951;28;102651;-53
2022/03/01 10:55:22;;;;;;;11.82;9.55;;;;;;;8.09;58.63;101700.38;5027526;28;103974;-53
2022/03/01 10:58:03;;;;;;;11.07;9.10;;;;;;;8.10;58.76;101708.28;5033220;28;102576;-53
2022/03/01 11:00:31;;;;;;;12.20;9.60;;;;;;;8.09;58.83;101695.78;5031164;28;102480;-53
2022/03/01 11:02:58;;;;;;;10.77;9.15;;;;;;;8.11;59.36;101698.25;5033394;28;102158;-53
2022/03/01 11:05:26;;;;;;;10.85;8.98;;;;;;;8.10;59.49;101691.19;5032728;28;103931;-54
2022/03/01 11:07:55;;;;;;;11.10;9.07;;;;;;;8.11;59.02;101692.81;5032861;28;102168;-53
2022/03/01 11:10:24;;;;;;;10.32;8.48;;;;;;;8.12;59.10;101689.06;5033175;28;101858;-53
2022/03/01 11:12:53;;;;;;;10.45;9.05;;;;;;;8.12;59.16;101678.22;5034681;28;102220;-53
2022/03/01 11:15:33;;;;;;;10.13;8.55;;;;;;;8.11;58.86;101677.41;5033002;27;103929;-53
2022/03/01 11:18:12;;;;;;;11.90;9.30;;;;;;;8.13;58.97;101674.44;5034071;28;102168;-53
2022/03/01 11:20:46;;;;;;;11.55;9.52;;;;;;;8.13;59.27;101664.44;5020776;28;102360;-53